Time;durP1;ratioP1;P1;durP2;ratioP2;P2;SDS_P1;SDS_P2;PMS_P1;PMS_P2;Temp;Humidity;BMP_temperature;BMP_pressure;BME280_temperature;BME280_humidity;BME280_pressure;Samples;Min_cycle;Max_cycle;Signal;HPM_P1;HPM_P2
2024/02/24 00:00:24;;;;;;;4.27;2.60;;;3.80;99.90;;;;;;5064632;28;20180;-70
2024/02/24 00:02:50;;;;;;;6.50;2.70;;;3.80;99.90;;;;;;5071651;28;20184;-70
2024/02/24 00:05:15;;;;;;;4.47;2.70;;;3.80;99.90;;;;;;5052232;28;20205;-70
2024/02/24 00:07:41;;;;;;;5.67;3.10;;;3.80;99.90;;;;;;5065840;28;20279;-70
2024/02/24 00:10:07;;;;;;;6.07;3.50;;;3.70;99.90;;;;;;5058015;28;20529;-70
2024/02/24 00:12:32;;;;;;;4.33;2.33;;;3.80;99.90;;;;;;5058760;28;20544;-70
2024/02/24 00:14:58;;;;;;;4.90;3.10;;;3.90;99.90;;;;;;5072222;28;20497;-70
2024/02/24 00:17:24;;;;;;;2.70;2.47;;;4.00;99.90;;;;;;5057287;28;20180;-70
2024/02/24 00:19:50;;;;;;;3.93;2.93;;;4.00;99.90;;;;;;5065638;28;20442;-70
2024/02/24 00:22:15;;;;;;;3.77;2.60;;;4.10;99.90;;;;;;5072098;28;20173;-70
2024/02/24 00:24:41;;;;;;;3.70;2.50;;;4.10;99.90;;;;;;5072143;28;20180;-70
2024/02/24 00:27:06;;;;;;;5.20;3.00;;;4.10;99.90;;;;;;5059084;28;20208;-70
2024/02/24 00:29:32;;;;;;;4.03;2.90;;;4.10;99.90;;;;;;5051460;28;20342;-70
2024/02/24 00:31:58;;;;;;;3.10;2.07;;;4.00;99.90;;;;;;5044745;28;20182;-70
2024/02/24 00:34:24;;;;;;;2.70;2.23;;;3.90;99.90;;;;;;5052579;28;20180;-70
2024/02/24 00:36:49;;;;;;;2.50;2.30;;;3.80;99.90;;;;;;5046516;28;20797;-70
2024/02/24 00:39:15;;;;;;;3.53;2.73;;;3.80;99.90;;;;;;5071581;28;20196;-70
2024/02/24 00:41:40;;;;;;;5.07;2.50;;;3.70;99.90;;;;;;5040564;28;20188;-70
2024/02/24 00:44:06;;;;;;;4.27;2.33;;;3.70;99.90;;;;;;5050947;28;20174;-70
2024/02/24 00:46:31;;;;;;;3.30;2.47;;;3.70;99.90;;;;;;5031518;28;20190;-70
2024/02/24 00:48:57;;;;;;;5.73;2.83;;;3.70;99.90;;;;;;5031787;28;20805;-70
2024/02/24 00:51:22;;;;;;;6.00;3.00;;;3.70;99.90;;;;;;5031911;28;20175;-70
2024/02/24 00:53:48;;;;;;;3.03;2.30;;;3.70;99.90;;;;;;5031966;28;20197;-70
2024/02/24 00:56:14;;;;;;;5.37;2.33;;;3.60;99.90;;;;;;5050831;28;20656;-70
2024/02/24 00:58:39;;;;;;;4.17;3.07;;;3.60;99.90;;;;;;5071034;28;20844;-70
2024/02/24 01:01:05;;;;;;;3.50;2.50;;;3.50;99.90;;;;;;5061743;28;20181;-70
2024/02/24 01:03:30;;;;;;;2.40;1.93;;;3.50;99.90;;;;;;5051832;28;20180;-70
2024/02/24 01:05:56;;;;;;;3.90;2.77;;;3.50;99.90;;;;;;5044666;28;20269;-70
2024/02/24 01:08:21;;;;;;;3.37;2.00;;;3.50;99.90;;;;;;5038247;28;20206;-68
2024/02/24 01:10:47;;;;;;;3.73;2.10;;;3.40;99.90;;;;;;5046863;28;20189;-68
2024/02/24 01:13:13;;;;;;;4.27;2.10;;;3.40;99.90;;;;;;5060767;28;20177;-69
2024/02/24 01:15:39;;;;;;;6.23;2.83;;;3.40;99.90;;;;;;5051733;28;20775;-69
2024/02/24 01:18:04;;;;;;;2.43;1.70;;;3.40;99.90;;;;;;5050831;28;20670;-70
2024/02/24 01:20:30;;;;;;;2.20;1.70;;;3.40;99.90;;;;;;5043314;28;20938;-69
2024/02/24 01:22:58;;;;;;;11.03;3.40;;;3.40;99.90;;;;;;5066677;28;20690;-69
2024/02/24 01:25:24;;;;;;;3.77;1.80;;;3.50;99.90;;;;;;5061576;28;20181;-70
2024/02/24 01:27:49;;;;;;;2.30;1.77;;;3.50;99.90;;;;;;5059167;28;20467;-69
2024/02/24 01:30:16;;;;;;;2.43;1.93;;;3.60;99.90;;;;;;5055587;28;20539;-69
2024/02/24 01:32:42;;;;;;;1.73;1.63;;;3.60;99.90;;;;;;5055227;28;20173;-69
2024/02/24 01:35:08;;;;;;;3.27;1.60;;;3.60;99.90;;;;;;5055165;28;20427;-69
2024/02/24 01:37:34;;;;;;;4.03;2.83;;;3.60;99.90;;;;;;5053176;28;20815;-69
2024/02/24 01:39:59;;;;;;;4.60;2.90;;;3.70;99.90;;;;;;5057578;28;20521;-70
2024/02/24 01:42:25;;;;;;;5.60;2.30;;;3.80;99.90;;;;;;5044575;28;20522;-69
2024/02/24 01:44:51;;;;;;;2.03;1.80;;;3.90;99.90;;;;;;5063520;28;20204;-69
2024/02/24 01:47:18;;;;;;;1.90;1.77;;;4.00;99.90;;;;;;5056406;28;20447;-69
2024/02/24 01:49:44;;;;;;;2.43;2.20;;;4.10;99.90;;;;;;5074941;28;20161;-69
2024/02/24 01:52:10;;;;;;;3.80;1.90;;;4.10;99.90;;;;;;5062931;28;20503;-69
2024/02/24 01:54:36;;;;;;;2.23;2.03;;;4.30;99.90;;;;;;5052745;28;20535;-69
2024/02/24 01:57:06;;;;;;;2.70;1.70;;;4.30;99.90;;;;;;5051683;28;20192;-70
2024/02/24 01:59:35;;;;;;;2.30;2.10;;;4.30;99.90;;;;;;5053678;28;20217;-69
2024/02/24 02:02:01;;;;;;;2.30;1.90;;;4.40;99.90;;;;;;5064290;28;20475;-68
2024/02/24 02:04:26;;;;;;;2.70;2.40;;;4.40;99.90;;;;;;5057798;28;20944;-69
2024/02/24 02:06:52;;;;;;;1.70;1.50;;;4.40;99.90;;;;;;5064240;28;20194;-68
2024/02/24 02:09:17;;;;;;;5.80;2.20;;;4.40;99.90;;;;;;5045744;28;20259;-69
2024/02/24 02:11:46;;;;;;;1.77;1.40;;;4.50;99.90;;;;;;5067797;28;20639;-70
2024/02/24 02:14:11;;;;;;;2.60;2.07;;;4.50;99.90;;;;;;5054120;28;20603;-68
2024/02/24 02:16:40;;;;;;;3.83;2.63;;;4.50;99.90;;;;;;5068041;28;20458;-69
2024/02/24 02:19:05;;;;;;;2.90;2.67;;;4.30;99.90;;;;;;5074315;28;20192;-69
2024/02/24 02:21:32;;;;;;;2.03;1.80;;;4.20;99.90;;;;;;5072972;28;20810;-69
2024/02/24 02:23:58;;;;;;;7.50;2.10;;;4.10;99.90;;;;;;5053147;28;20205;-69
2024/02/24 02:26:23;;;;;;;3.07;2.53;;;4.10;99.90;;;;;;5058676;28;20857;-70
2024/02/24 02:28:49;;;;;;;2.00;1.50;;;4.10;99.90;;;;;;5048613;28;20206;-69
2024/02/24 02:31:14;;;;;;;1.90;1.40;;;4.00;99.90;;;;;;5046753;28;20181;-68
2024/02/24 02:33:40;;;;;;;1.50;1.40;;;4.00;99.90;;;;;;5035932;28;20178;-69
2024/02/24 02:36:06;;;;;;;2.10;1.40;;;3.90;99.90;;;;;;5061927;28;20228;-69
2024/02/24 02:38:32;;;;;;;1.80;1.47;;;3.90;99.90;;;;;;5061082;28;20246;-69
2024/02/24 02:40:57;;;;;;;4.03;1.80;;;3.90;99.90;;;;;;5056906;28;20423;-69
2024/02/24 02:43:23;;;;;;;2.33;1.40;;;3.90;99.90;;;;;;5046645;28;20543;-69
2024/02/24 02:45:48;;;;;;;1.07;0.90;;;3.90;99.90;;;;;;5050436;28;20195;-69
2024/02/24 02:48:14;;;;;;;3.53;1.30;;;3.90;99.90;;;;;;5036931;28;20217;-69
2024/02/24 02:50:39;;;;;;;3.17;1.40;;;3.90;99.90;;;;;;5049404;28;20169;-69
2024/02/24 02:53:05;;;;;;;1.43;1.33;;;3.90;99.90;;;;;;5059094;28;20177;-69
2024/02/24 02:55:30;;;;;;;0.90;0.90;;;4.00;99.90;;;;;;5052816;28;20284;-68
2024/02/24 02:57:56;;;;;;;1.63;0.87;;;4.00;99.90;;;;;;5050168;28;20209;-69
2024/02/24 03:00:21;;;;;;;2.73;1.40;;;4.00;99.90;;;;;;5067078;28;20240;-70
2024/02/24 03:02:47;;;;;;;1.23;1.10;;;4.00;99.90;;;;;;5049895;28;20189;-68
2024/02/24 03:05:13;;;;;;;2.73;1.10;;;3.90;99.90;;;;;;5034041;28;20536;-69
2024/02/24 03:07:38;;;;;;;4.43;1.37;;;4.00;99.90;;;;;;5045455;28;20209;-69
2024/02/24 03:10:04;;;;;;;1.77;1.33;;;4.10;99.90;;;;;;5053211;28;20174;-69
2024/02/24 03:12:30;;;;;;;1.03;1.03;;;4.10;99.90;;;;;;5039416;28;20186;-69
2024/02/24 03:14:56;;;;;;;1.40;1.03;;;4.10;99.90;;;;;;5043941;28;20432;-69
2024/02/24 03:17:22;;;;;;;1.70;1.17;;;4.00;99.90;;;;;;5054604;28;20197;-69
2024/02/24 03:19:47;;;;;;;1.03;0.90;;;3.90;99.90;;;;;;5054241;28;20468;-69
2024/02/24 03:22:13;;;;;;;2.20;1.60;;;3.90;99.90;;;;;;5035912;28;20260;-69
2024/02/24 03:24:42;;;;;;;2.23;1.90;;;3.80;99.90;;;;;;5033057;28;20265;-69
2024/02/24 03:27:08;;;;;;;1.50;1.40;;;3.80;99.90;;;;;;5050346;28;20666;-69
2024/02/24 03:29:33;;;;;;;2.07;1.00;;;3.70;99.90;;;;;;5042836;28;20448;-68
2024/02/24 03:32:00;;;;;;;3.10;1.70;;;3.70;99.90;;;;;;5035355;28;20512;-69
2024/02/24 03:34:26;;;;;;;1.00;0.90;;;3.60;99.90;;;;;;5050038;28;20311;-69
2024/02/24 03:36:52;;;;;;;1.10;0.93;;;3.60;99.90;;;;;;5042558;28;20966;-69
2024/02/24 03:39:18;;;;;;;1.23;1.13;;;3.60;99.90;;;;;;5042036;28;20464;-69
2024/02/24 03:41:45;;;;;;;1.17;1.07;;;3.50;99.90;;;;;;5038346;28;20180;-69
2024/02/24 03:44:10;;;;;;;1.37;0.93;;;3.50;99.90;;;;;;5048536;28;20938;-69
2024/02/24 03:46:36;;;;;;;1.40;1.30;;;3.50;99.90;;;;;;5047256;28;20475;-69
2024/02/24 03:49:01;;;;;;;1.13;1.03;;;3.40;99.90;;;;;;5053512;28;20197;-69
2024/02/24 03:51:27;;;;;;;2.50;1.20;;;3.40;99.90;;;;;;5034740;28;20263;-69
2024/02/24 03:53:52;;;;;;;1.23;1.13;;;3.40;99.90;;;;;;5050680;28;20615;-69
2024/02/24 03:56:18;;;;;;;2.30;1.13;;;3.40;99.90;;;;;;5034832;28;20174;-69
2024/02/24 03:58:45;;;;;;;2.27;1.60;;;3.30;99.90;;;;;;5032153;28;20218;-69
2024/02/24 04:01:10;;;;;;;3.23;1.43;;;3.30;99.90;;;;;;5042795;28;20177;-69
2024/02/24 04:03:36;;;;;;;1.43;1.33;;;3.30;99.90;;;;;;5049722;28;20571;-69
2024/02/24 04:06:02;;;;;;;1.63;1.30;;;3.20;99.90;;;;;;5051002;28;20235;-69
2024/02/24 04:08:27;;;;;;;1.30;1.20;;;3.20;99.90;;;;;;5070834;28;20317;-69
2024/02/24 04:10:53;;;;;;;1.10;1.00;;;3.10;99.90;;;;;;5040396;28;20228;-69
2024/02/24 04:13:20;;;;;;;1.43;1.30;;;3.10;99.90;;;;;;5032329;28;20550;-69
2024/02/24 04:15:50;;;;;;;1.50;1.40;;;3.10;99.90;;;;;;5032465;28;20181;-69
2024/02/24 04:18:16;;;;;;;2.87;1.30;;;3.10;99.90;;;;;;5057970;28;20473;-69
2024/02/24 04:20:43;;;;;;;1.47;1.20;;;3.20;99.90;;;;;;5049645;28;20831;-69
2024/02/24 04:23:08;;;;;;;1.47;0.90;;;3.20;99.90;;;;;;5039605;28;20197;-69
2024/02/24 04:25:34;;;;;;;1.33;1.13;;;3.20;99.90;;;;;;5032246;28;20794;-69
2024/02/24 04:27:59;;;;;;;1.30;1.20;;;3.30;99.90;;;;;;5031694;28;20221;-69
2024/02/24 04:30:25;;;;;;;1.60;1.07;;;3.30;99.90;;;;;;5032087;28;20586;-69
2024/02/24 04:32:50;;;;;;;1.40;1.30;;;3.30;99.90;;;;;;5041108;28;20260;-69
2024/02/24 04:35:16;;;;;;;2.10;0.90;;;3.40;99.90;;;;;;5046082;28;20213;-69
2024/02/24 04:37:41;;;;;;;1.60;0.87;;;3.50;99.90;;;;;;5036425;28;20213;-69
2024/02/24 04:40:07;;;;;;;0.90;0.90;;;3.60;99.90;;;;;;5055392;28;20267;-68
2024/02/24 04:42:33;;;;;;;1.80;1.13;;;3.60;99.90;;;;;;5043886;28;20197;-68
2024/02/24 04:44:59;;;;;;;1.50;0.90;;;3.70;99.90;;;;;;5032018;28;20437;-69
2024/02/24 04:47:25;;;;;;;1.03;0.93;;;3.70;99.90;;;;;;5036462;28;20221;-68
2024/02/24 04:49:51;;;;;;;3.27;1.30;;;3.70;99.90;;;;;;5038102;28;20178;-70
2024/02/24 04:52:17;;;;;;;1.20;1.00;;;3.80;99.90;;;;;;5059147;28;20430;-70
2024/02/24 04:54:42;;;;;;;0.80;0.80;;;3.80;99.90;;;;;;5048527;28;20183;-68
2024/02/24 04:57:08;;;;;;;0.90;0.90;;;3.80;99.90;;;;;;5045474;28;20189;-68
2024/02/24 04:59:34;;;;;;;1.10;1.00;;;3.80;99.90;;;;;;5053630;28;20201;-68
2024/02/24 05:02:00;;;;;;;0.90;0.90;;;3.90;99.90;;;;;;5044308;28;20532;-68
2024/02/24 05:04:25;;;;;;;4.93;2.43;;;3.90;99.90;;;;;;5065919;28;20447;-70
2024/02/24 05:06:51;;;;;;;1.30;1.20;;;3.90;99.90;;;;;;5054518;28;20219;-70
2024/02/24 05:09:16;;;;;;;2.83;1.47;;;3.90;99.90;;;;;;5051797;28;20606;-70
2024/02/24 05:11:42;;;;;;;1.10;1.00;;;3.90;99.90;;;;;;5061453;28;20266;-70
2024/02/24 05:14:07;;;;;;;1.10;0.90;;;3.90;99.90;;;;;;5039113;28;20224;-70
2024/02/24 05:16:34;;;;;;;1.53;1.20;;;3.90;99.90;;;;;;5054528;28;20180;-71
2024/02/24 05:19:00;;;;;;;1.30;1.20;;;3.90;99.90;;;;;;5057235;28;20213;-70
2024/02/24 05:21:25;;;;;;;3.07;0.90;;;3.80;99.90;;;;;;5052982;28;20435;-70
2024/02/24 05:23:51;;;;;;;1.30;1.20;;;3.90;99.90;;;;;;5062412;28;20182;-71
2024/02/24 05:26:27;;;;;;;1.20;1.10;;;3.90;99.90;;;;;;5057273;28;20173;-70
2024/02/24 05:28:52;;;;;;;1.13;1.03;;;3.90;99.90;;;;;;5058029;28;20209;-71
2024/02/24 05:31:18;;;;;;;2.50;1.30;;;3.90;99.90;;;;;;5062185;28;20510;-70
2024/02/24 05:33:46;;;;;;;1.73;1.20;;;3.90;99.90;;;;;;5049712;28;20189;-70
2024/02/24 05:36:11;;;;;;;1.30;1.20;;;3.90;99.90;;;;;;5061715;28;20174;-70
2024/02/24 05:38:37;;;;;;;1.10;1.00;;;3.90;99.90;;;;;;5063370;28;20870;-70
2024/02/24 05:41:03;;;;;;;1.53;1.10;;;3.90;99.90;;;;;;5048514;28;20196;-70
2024/02/24 05:43:29;;;;;;;0.83;0.80;;;3.90;99.90;;;;;;5053903;28;20189;-70
2024/02/24 05:45:55;;;;;;;1.30;1.20;;;4.00;99.90;;;;;;5049744;28;20469;-70
2024/02/24 05:48:22;;;;;;;1.27;1.17;;;4.00;99.90;;;;;;5043980;28;20462;-71
2024/02/24 05:50:49;;;;;;;2.17;1.03;;;4.00;99.90;;;;;;5070359;28;20161;-70
2024/02/24 05:53:14;;;;;;;1.20;1.10;;;4.00;99.90;;;;;;5053143;28;20423;-70
2024/02/24 05:55:43;;;;;;;1.93;1.20;;;4.00;99.90;;;;;;5035130;28;20933;-70
2024/02/24 05:58:08;;;;;;;3.33;1.40;;;4.00;99.90;;;;;;5046781;28;20271;-71
2024/02/24 06:00:34;;;;;;;1.37;1.23;;;4.00;99.90;;;;;;5056195;28;20430;-70
2024/02/24 06:03:00;;;;;;;2.47;1.37;;;4.00;99.90;;;;;;5067019;28;20180;-71
2024/02/24 06:05:26;;;;;;;1.97;1.40;;;4.10;99.90;;;;;;5057871;28;20260;-73
2024/02/24 06:07:52;;;;;;;2.70;1.37;;;4.10;99.90;;;;;;5053174;28;20555;-72
2024/02/24 06:10:18;;;;;;;1.40;1.30;;;4.10;99.90;;;;;;5065139;28;20205;-72
2024/02/24 06:12:44;;;;;;;4.53;1.70;;;4.10;99.90;;;;;;5060859;28;20166;-72
2024/02/24 06:15:11;;;;;;;2.00;1.50;;;4.10;99.90;;;;;;5053520;28;20430;-72
2024/02/24 06:17:36;;;;;;;1.30;1.20;;;4.20;99.90;;;;;;5039830;28;20169;-71
2024/02/24 06:20:02;;;;;;;1.87;1.10;;;4.20;99.90;;;;;;5050899;28;20562;-72
2024/02/24 06:22:28;;;;;;;2.40;1.57;;;4.30;99.90;;;;;;5038490;28;20179;-72
2024/02/24 06:24:53;;;;;;;3.73;1.70;;;4.30;99.90;;;;;;5056955;28;20440;-70
2024/02/24 06:27:19;;;;;;;5.57;4.73;;;4.30;99.90;;;;;;5033828;28;20206;-71
2024/02/24 06:29:44;;;;;;;4.10;1.77;;;4.30;99.90;;;;;;5035413;28;20257;-71
2024/02/24 06:32:10;;;;;;;2.20;1.53;;;4.20;99.90;;;;;;5039341;28;20644;-71
2024/02/24 06:34:42;;;;;;;1.97;1.50;;;4.20;99.90;;;;;;5049732;28;20208;-72
2024/02/24 06:37:08;;;;;;;2.20;1.33;;;4.30;99.90;;;;;;5056140;28;20651;-71
2024/02/24 06:39:33;;;;;;;2.43;1.87;;;4.20;99.90;;;;;;5066285;28;20440;-72
2024/02/24 06:42:00;;;;;;;2.60;1.57;;;4.20;99.90;;;;;;5062188;28;20679;-71
2024/02/24 06:44:25;;;;;;;3.03;2.17;;;4.30;99.90;;;;;;5055696;28;20180;-71
2024/02/24 06:46:51;;;;;;;1.93;1.70;;;4.30;99.90;;;;;;5056735;28;20428;-71
2024/02/24 06:49:16;;;;;;;1.33;1.23;;;4.30;99.90;;;;;;5045850;28;20196;-71
2024/02/24 06:51:42;;;;;;;1.53;1.43;;;4.20;99.90;;;;;;5058977;28;20662;-71
2024/02/24 06:54:08;;;;;;;1.50;1.27;;;4.20;99.90;;;;;;5052332;28;20201;-71
2024/02/24 06:56:34;;;;;;;1.93;1.60;;;4.20;99.90;;;;;;5063833;28;21019;-71
2024/02/24 06:59:01;;;;;;;1.97;1.00;;;4.20;99.90;;;;;;5044963;28;20456;-71
2024/02/24 07:01:27;;;;;;;1.97;1.40;;;4.20;99.90;;;;;;5035156;28;20177;-71
2024/02/24 07:03:52;;;;;;;2.20;1.27;;;4.20;99.90;;;;;;5054025;28;20433;-71
2024/02/24 07:06:18;;;;;;;1.47;1.37;;;4.30;99.90;;;;;;5057759;28;20185;-72
2024/02/24 07:08:45;;;;;;;1.63;1.10;;;4.20;99.90;;;;;;5052662;28;20759;-71
2024/02/24 07:11:10;;;;;;;2.40;1.10;;;4.30;99.90;;;;;;5071986;28;20255;-72
2024/02/24 07:13:36;;;;;;;1.30;1.20;;;4.30;99.90;;;;;;5061165;28;20472;-71
2024/02/24 07:16:01;;;;;;;1.30;1.20;;;4.30;99.90;;;;;;5051170;28;20268;-72
2024/02/24 07:18:27;;;;;;;1.33;1.20;;;4.30;99.90;;;;;;5063150;28;20215;-71
2024/02/24 07:20:52;;;;;;;1.43;1.10;;;4.30;99.90;;;;;;5063573;28;20193;-71
2024/02/24 07:23:18;;;;;;;2.80;1.20;;;4.30;99.90;;;;;;5050113;28;20578;-71
2024/02/24 07:25:43;;;;;;;1.00;0.83;;;4.30;99.90;;;;;;5056934;28;20235;-71
2024/02/24 07:28:09;;;;;;;1.73;1.43;;;4.30;99.90;;;;;;5044460;28;20284;-71
2024/02/24 07:30:34;;;;;;;1.60;1.33;;;4.30;99.90;;;;;;5041498;28;20170;-72
2024/02/24 07:33:00;;;;;;;5.17;1.80;;;4.40;99.90;;;;;;5051139;28;20674;-69
2024/02/24 07:35:26;;;;;;;1.33;1.10;;;4.40;99.90;;;;;;5061062;28;20274;-71
2024/02/24 07:37:51;;;;;;;1.20;1.07;;;4.50;99.90;;;;;;5033401;28;21196;-71
2024/02/24 07:40:17;;;;;;;1.17;1.07;;;4.50;99.90;;;;;;5046171;28;20185;-70
2024/02/24 07:42:42;;;;;;;1.13;1.03;;;4.50;99.90;;;;;;5059815;28;20189;-72
2024/02/24 07:45:08;;;;;;;2.10;1.03;;;4.60;99.90;;;;;;5056923;28;20654;-71
2024/02/24 07:47:34;;;;;;;1.10;0.90;;;4.60;99.90;;;;;;5048561;28;20248;-72
2024/02/24 07:50:00;;;;;;;4.07;2.90;;;4.60;99.90;;;;;;5060877;28;20197;-70
2024/02/24 07:52:25;;;;;;;0.90;0.90;;;4.70;99.90;;;;;;5052754;28;21269;-70
2024/02/24 07:54:51;;;;;;;1.10;1.00;;;4.70;99.90;;;;;;5051988;28;20177;-69
2024/02/24 07:57:16;;;;;;;1.63;1.10;;;4.70;99.90;;;;;;5047990;28;20177;-70
2024/02/24 07:59:42;;;;;;;0.90;0.70;;;4.70;99.90;;;;;;5046009;28;20237;-69
2024/02/24 08:02:07;;;;;;;0.70;0.70;;;4.80;99.90;;;;;;5045964;28;20252;-72
2024/02/24 08:04:33;;;;;;;0.87;0.60;;;4.80;99.90;;;;;;5055775;28;20184;-71
2024/02/24 08:06:58;;;;;;;1.00;0.93;;;4.80;99.90;;;;;;5051931;28;20248;-70
2024/02/24 08:09:24;;;;;;;0.93;0.93;;;4.90;99.90;;;;;;5049175;28;20211;-70
2024/02/24 08:11:50;;;;;;;0.77;0.70;;;4.90;99.90;;;;;;5049797;28;20262;-70
2024/02/24 08:14:16;;;;;;;1.27;0.60;;;4.90;99.90;;;;;;5049715;28;20192;-70
2024/02/24 08:16:41;;;;;;;0.70;0.70;;;4.80;99.90;;;;;;5057526;28;20446;-69
2024/02/24 08:19:07;;;;;;;1.10;1.00;;;4.90;99.90;;;;;;5055358;28;20247;-72
2024/02/24 08:21:36;;;;;;;4.60;2.97;;;4.90;99.90;;;;;;5032995;28;20210;-72
2024/02/24 08:24:07;;;;;;;1.50;1.00;;;5.00;99.90;;;;;;5050842;28;20269;-69
2024/02/24 08:26:39;;;;;;;0.67;0.67;;;5.20;99.90;;;;;;5058092;28;21364;-69
2024/02/24 08:29:05;;;;;;;6.73;4.47;;;5.40;99.90;;;;;;5050457;28;20463;-72
2024/02/24 08:31:33;;;;;;;3.07;2.00;;;5.60;99.90;;;;;;5037321;28;20566;-69
2024/02/24 08:33:58;;;;;;;8.73;4.40;;;6.10;99.90;;;;;;5054757;28;20425;-69
2024/02/24 08:36:23;;;;;;;1.63;1.30;;;6.70;99.90;;;;;;5061991;28;20426;-69
2024/02/24 08:38:49;;;;;;;1.87;1.50;;;7.30;99.90;;;;;;5038369;28;20209;-69
2024/02/24 08:41:14;;;;;;;2.40;1.87;;;7.40;99.90;;;;;;5037060;28;20288;-69
2024/02/24 08:43:40;;;;;;;3.23;1.90;;;7.80;99.90;;;;;;5052788;28;20189;-68
2024/02/24 08:46:05;;;;;;;2.10;1.57;;;8.10;99.90;;;;;;5050160;28;20196;-70
2024/02/24 08:48:31;;;;;;;2.80;2.00;;;8.50;99.90;;;;;;5057127;28;20201;-67
2024/02/24 08:50:57;;;;;;;1.27;0.90;;;9.20;99.90;;;;;;5051523;28;20177;-67
2024/02/24 08:53:22;;;;;;;1.50;1.20;;;9.70;99.90;;;;;;5054695;28;20280;-67
2024/02/24 08:55:48;;;;;;;1.90;0.83;;;10.00;99.90;;;;;;5050762;28;20172;-68
2024/02/24 08:58:13;;;;;;;2.07;1.00;;;10.30;99.90;;;;;;5050791;28;20247;-68
2024/02/24 09:00:39;;;;;;;0.73;0.73;;;10.70;99.90;;;;;;5049099;28;20184;-68
2024/02/24 09:03:04;;;;;;;1.70;1.57;;;10.80;99.90;;;;;;5042868;28;20178;-68
2024/02/24 09:05:30;;;;;;;1.87;1.20;;;11.00;99.90;;;;;;5053941;28;20222;-68
2024/02/24 09:07:55;;;;;;;1.17;1.10;;;12.00;99.90;;;;;;5048629;28;20202;-68
2024/02/24 09:10:21;;;;;;;1.13;1.00;;;12.10;99.90;;;;;;5051023;28;20181;-69
2024/02/24 09:12:46;;;;;;;1.03;0.90;;;11.90;99.90;;;;;;5044109;28;20224;-68
2024/02/24 09:15:12;;;;;;;1.10;1.00;;;11.60;99.90;;;;;;5045736;28;20189;-68
2024/02/24 09:17:37;;;;;;;1.23;0.80;;;11.30;99.90;;;;;;5054202;28;20328;-69
2024/02/24 09:20:03;;;;;;;0.83;0.83;;;10.80;99.90;;;;;;5049424;28;20231;-69
2024/02/24 09:22:29;;;;;;;1.27;1.00;;;10.90;99.90;;;;;;5051607;28;20561;-69
2024/02/24 09:24:54;;;;;;;1.37;1.27;;;10.90;99.90;;;;;;5056732;28;20191;-69
2024/02/24 09:27:20;;;;;;;1.53;1.20;;;11.50;99.90;;;;;;5055911;28;20274;-69
2024/02/24 09:29:46;;;;;;;2.47;1.00;;;11.40;99.90;;;;;;5047838;28;20234;-69
2024/02/24 09:32:12;;;;;;;3.57;1.00;;;11.20;99.90;;;;;;5051094;28;20434;-69
2024/02/24 09:34:38;;;;;;;0.70;0.70;;;10.60;99.90;;;;;;5038477;28;20171;-69
2024/02/24 09:37:05;;;;;;;0.93;0.90;;;10.40;99.90;;;;;;5043747;28;20439;-70
2024/02/24 09:39:30;;;;;;;1.90;1.20;;;11.30;99.90;;;;;;5061727;28;20206;-68
2024/02/24 09:42:02;;;;;;;1.50;1.20;;;11.50;99.90;;;;;;5063858;28;20802;-71
2024/02/24 09:44:29;;;;;;;1.30;1.20;;;12.50;99.90;;;;;;5044708;28;20263;-70
2024/02/24 09:46:57;;;;;;;1.47;1.37;;;13.40;99.90;;;;;;5047451;28;20436;-74
2024/02/24 09:49:24;;;;;;;1.20;1.10;;;13.10;98.80;;;;;;5055974;28;20493;-72
2024/02/24 09:51:49;;;;;;;1.10;1.00;;;13.70;97.40;;;;;;5049456;28;20428;-71
2024/02/24 09:54:15;;;;;;;1.37;1.00;;;13.90;92.70;;;;;;5059470;28;20422;-71
2024/02/24 09:56:44;;;;;;;1.50;1.13;;;14.50;91.70;;;;;;5043139;28;20209;-71
2024/02/24 09:59:10;;;;;;;1.73;1.63;;;14.60;90.70;;;;;;5038109;28;20213;-71
2024/02/24 10:01:36;;;;;;;1.10;1.00;;;14.20;88.50;;;;;;5047357;28;20876;-72
2024/02/24 10:04:03;;;;;;;1.77;0.87;;;14.90;88.20;;;;;;5061186;28;20936;-71
2024/02/24 10:06:28;;;;;;;1.00;0.87;;;16.00;78.00;;;;;;5057455;28;20556;-72
2024/02/24 10:08:54;;;;;;;1.13;0.90;;;17.40;67.90;;;;;;5053871;28;20904;-73
2024/02/24 10:11:20;;;;;;;0.93;0.93;;;18.20;59.70;;;;;;5051125;28;20190;-70
2024/02/24 10:13:46;;;;;;;0.90;0.90;;;18.00;56.20;;;;;;5060982;28;20825;-72
2024/02/24 10:16:12;;;;;;;2.90;1.10;;;17.50;58.00;;;;;;5073235;28;20455;-73
2024/02/24 10:18:40;;;;;;;1.50;0.80;;;17.60;57.30;;;;;;5073839;28;20851;-72
2024/02/24 10:21:06;;;;;;;0.80;0.80;;;17.70;55.00;;;;;;5074437;28;20180;-72
2024/02/24 10:23:32;;;;;;;1.47;1.30;;;17.30;54.30;;;;;;5074363;28;20407;-73
2024/02/24 10:25:58;;;;;;;1.10;1.00;;;16.30;55.20;;;;;;5051591;28;20178;-73
2024/02/24 10:28:26;;;;;;;1.60;1.50;;;15.00;55.60;;;;;;5043156;28;20463;-72
2024/02/24 10:30:52;;;;;;;1.27;0.90;;;14.50;57.50;;;;;;5036350;28;20433;-72
2024/02/24 10:33:18;;;;;;;1.23;1.13;;;13.90;60.10;;;;;;5034260;28;20494;-72
2024/02/24 10:35:44;;;;;;;1.33;1.00;;;14.30;62.00;;;;;;5034173;28;20890;-72
2024/02/24 10:38:12;;;;;;;0.90;0.90;;;15.70;59.80;;;;;;5033281;28;20554;-72
2024/02/24 10:40:40;;;;;;;1.87;0.90;;;15.60;55.10;;;;;;5034142;28;20428;-72
2024/02/24 10:43:07;;;;;;;2.23;1.73;;;14.80;57.90;;;;;;5034114;28;20432;-72
2024/02/24 10:45:33;;;;;;;3.53;2.37;;;13.80;62.70;;;;;;5033968;28;20425;-72
2024/02/24 10:47:58;;;;;;;1.60;1.50;;;13.10;66.60;;;;;;5033042;28;20514;-72
2024/02/24 10:50:24;;;;;;;1.33;1.10;;;12.90;68.30;;;;;;5033835;28;20175;-72
2024/02/24 10:52:51;;;;;;;1.30;1.20;;;12.60;67.30;;;;;;5033750;28;20179;-72
2024/02/24 10:55:22;;;;;;;1.77;1.43;;;12.40;70.60;;;;;;5033705;28;20646;-72
2024/02/24 10:57:52;;;;;;;1.40;1.30;;;11.90;72.90;;;;;;5032823;28;20463;-72
2024/02/24 11:00:25;;;;;;;1.10;1.00;;;11.80;74.30;;;;;;5033730;28;20437;-72
2024/02/24 11:02:51;;;;;;;1.70;1.40;;;11.90;74.00;;;;;;5033692;28;20918;-72
2024/02/24 11:05:18;;;;;;;2.10;1.37;;;12.00;75.20;;;;;;5033582;28;20429;-72
2024/02/24 11:07:43;;;;;;;2.00;1.80;;;12.00;73.70;;;;;;5032683;28;20460;-72
2024/02/24 11:10:18;;;;;;;2.30;1.77;;;12.20;77.30;;;;;;5033495;28;20429;-72
2024/02/24 11:12:44;;;;;;;1.70;1.37;;;12.60;73.60;;;;;;5033474;28;20220;-72
2024/02/24 11:15:23;;;;;;;2.70;1.40;;;13.70;68.70;;;;;;5033503;28;20416;-73
2024/02/24 11:17:56;;;;;;;1.63;1.03;;;13.60;63.20;;;;;;5032556;28;20197;-72
2024/02/24 11:20:34;;;;;;;2.10;1.90;;;13.40;64.40;;;;;;5033312;28;20451;-72
2024/02/24 11:23:18;;;;;;;1.10;1.00;;;12.80;66.10;;;;;;5033289;28;20782;-72
2024/02/24 11:25:44;;;;;;;1.10;0.90;;;12.10;67.50;;;;;;5033213;28;20509;-72
2024/02/24 11:28:10;;;;;;;1.53;0.80;;;11.40;73.40;;;;;;5032298;28;20466;-72
2024/02/24 11:30:38;;;;;;;1.00;0.90;;;11.00;76.10;;;;;;5033180;28;20771;-72
2024/02/24 11:33:28;;;;;;;1.30;1.20;;;10.80;82.10;;;;;;5032987;28;20551;-72
2024/02/24 11:35:55;;;;;;;1.60;0.80;;;10.70;78.50;;;;;;5033039;28;20417;-71
2024/02/24 11:38:22;;;;;;;1.53;1.43;;;10.70;85.30;;;;;;5032177;28;20483;-72
2024/02/24 11:40:48;;;;;;;2.00;1.17;;;11.70;81.70;;;;;;5032986;28;20429;-72
2024/02/24 11:43:15;;;;;;;1.10;1.00;;;12.30;79.10;;;;;;5032827;28;20835;-72
2024/02/24 11:45:50;;;;;;;1.57;1.00;;;12.50;76.10;;;;;;5032695;28;20972;-72
2024/02/24 11:48:17;;;;;;;1.03;0.97;;;12.00;75.60;;;;;;5031974;28;20468;-72
2024/02/24 11:50:44;;;;;;;1.00;1.00;;;11.30;82.30;;;;;;5032815;28;20424;-72
2024/02/24 11:53:14;;;;;;;1.70;1.17;;;11.10;83.90;;;;;;5032761;28;20452;-72
2024/02/24 11:55:45;;;;;;;0.87;0.80;;;11.00;84.50;;;;;;5032682;28;20441;-71
2024/02/24 11:58:12;;;;;;;0.80;0.80;;;11.80;82.40;;;;;;5031642;28;20457;-72
2024/02/24 12:00:39;;;;;;;1.73;0.70;;;12.40;75.90;;;;;;5032712;28;20487;-72
2024/02/24 12:03:12;;;;;;;0.90;0.90;;;12.90;72.30;;;;;;5032645;28;20413;-73
2024/02/24 12:05:38;;;;;;;1.80;0.70;;;14.30;64.80;;;;;;5032550;28;20420;-73
2024/02/24 12:08:07;;;;;;;1.30;0.80;;;14.40;60.30;;;;;;5031673;28;20547;-72
2024/02/24 12:10:38;;;;;;;1.77;1.13;;;13.70;62.00;;;;;;5032421;28;20553;-73
2024/02/24 12:13:10;;;;;;;1.27;1.03;;;14.70;58.40;;;;;;5032381;28;20417;-73
2024/02/24 12:15:40;;;;;;;0.93;0.83;;;14.80;57.90;;;;;;5032445;28;20417;-73
2024/02/24 12:18:07;;;;;;;1.07;1.07;;;16.00;56.70;;;;;;5031578;28;20816;-73
2024/02/24 12:20:36;;;;;;;1.20;1.10;;;17.10;53.00;;;;;;5032367;28;20435;-73
2024/02/24 12:23:06;;;;;;;4.30;0.80;;;16.30;53.70;;;;;;5032172;28;20428;-73
2024/02/24 12:25:35;;;;;;;3.03;0.80;;;17.60;50.90;;;;;;5032281;28;20428;-73
2024/02/24 12:28:03;;;;;;;1.20;1.10;;;17.00;49.30;;;;;;5031267;28;20464;-72
2024/02/24 12:30:35;;;;;;;1.97;1.23;;;15.80;50.30;;;;;;5032162;28;20425;-73
2024/02/24 12:33:05;;;;;;;1.40;1.30;;;15.20;51.00;;;;;;5030889;28;20429;-73
2024/02/24 12:35:31;;;;;;;0.90;0.90;;;14.40;52.90;;;;;;5032014;28;20413;-73
2024/02/24 12:37:56;;;;;;;1.27;1.00;;;14.50;54.50;;;;;;5031160;28;21000;-73
2024/02/24 12:40:32;;;;;;;1.43;1.30;;;15.00;52.90;;;;;;5040537;28;20187;-66
2024/02/24 12:42:59;;;;;;;0.90;0.80;;;14.80;53.00;;;;;;5034386;28;20220;-66
2024/02/24 12:45:25;;;;;;;2.40;0.93;;;14.50;55.50;;;;;;5032117;28;20503;-66
2024/02/24 12:47:51;;;;;;;1.00;1.00;;;13.60;55.70;;;;;;5031203;28;20555;-66